sensor_id;sensor_type;location;lat;lon;timestamp;P1;durP1;ratioP1;P2;durP2;ratioP2
10216;SDS011;5152;59.674;16.838;2023-08-07T00:01:15;4.40;;;4.00;;
10216;SDS011;5152;59.674;16.838;2023-08-07T00:03:41;6.07;;;3.93;;
10216;SDS011;5152;59.674;16.838;2023-08-07T00:06:08;18.10;;;11.77;;
10216;SDS011;5152;59.674;16.838;2023-08-07T00:08:35;17.83;;;11.03;;
10216;SDS011;5152;59.674;16.838;2023-08-07T00:11:06;6.10;;;4.53;;
10216;SDS011;5152;59.674;16.838;2023-08-07T00:13:33;17.40;;;10.93;;
10216;SDS011;5152;59.674;16.838;2023-08-07T00:16:00;19.87;;;12.63;;
10216;SDS011;5152;59.674;16.838;2023-08-07T00:18:29;19.23;;;13.47;;
10216;SDS011;5152;59.674;16.838;2023-08-07T00:20:56;15.17;;;6.83;;
10216;SDS011;5152;59.674;16.838;2023-08-07T00:23:22;8.23;;;4.23;;
10216;SDS011;5152;59.674;16.838;2023-08-07T00:25:49;5.27;;;3.67;;
10216;SDS011;5152;59.674;16.838;2023-08-07T00:28:16;6.00;;;5.40;;
10216;SDS011;5152;59.674;16.838;2023-08-07T00:30:43;9.47;;;6.93;;
10216;SDS011;5152;59.674;16.838;2023-08-07T00:33:10;4.90;;;2.03;;
10216;SDS011;5152;59.674;16.838;2023-08-07T00:35:38;10.63;;;6.77;;
10216;SDS011;5152;59.674;16.838;2023-08-07T00:38:05;18.60;;;9.50;;
10216;SDS011;5152;59.674;16.838;2023-08-07T00:40:36;8.67;;;7.73;;
10216;SDS011;5152;59.674;16.838;2023-08-07T00:43:03;7.37;;;6.27;;
10216;SDS011;5152;59.674;16.838;2023-08-07T00:45:31;21.07;;;12.33;;
10216;SDS011;5152;59.674;16.838;2023-08-07T00:48:01;20.43;;;15.27;;
10216;SDS011;5152;59.674;16.838;2023-08-07T00:50:28;8.70;;;7.07;;
10216;SDS011;5152;59.674;16.838;2023-08-07T00:52:57;22.67;;;12.37;;
10216;SDS011;5152;59.674;16.838;2023-08-07T00:55:23;20.20;;;14.57;;
10216;SDS011;5152;59.674;16.838;2023-08-07T00:57:50;25.73;;;15.87;;
10216;SDS011;5152;59.674;16.838;2023-08-07T01:00:17;26.07;;;13.30;;
10216;SDS011;5152;59.674;16.838;2023-08-07T01:02:45;31.33;;;17.90;;
10216;SDS011;5152;59.674;16.838;2023-08-07T01:05:14;28.13;;;18.60;;
10216;SDS011;5152;59.674;16.838;2023-08-07T01:07:41;24.23;;;15.40;;
10216;SDS011;5152;59.674;16.838;2023-08-07T01:10:09;24.77;;;16.90;;
10216;SDS011;5152;59.674;16.838;2023-08-07T01:12:40;24.33;;;17.30;;
10216;SDS011;5152;59.674;16.838;2023-08-07T01:15:12;34.87;;;21.33;;
10216;SDS011;5152;59.674;16.838;2023-08-07T01:17:40;35.10;;;24.40;;
10216;SDS011;5152;59.674;16.838;2023-08-07T01:20:08;40.33;;;24.07;;
10216;SDS011;5152;59.674;16.838;2023-08-07T01:22:37;34.63;;;22.53;;
10216;SDS011;5152;59.674;16.838;2023-08-07T01:25:04;27.00;;;20.97;;
10216;SDS011;5152;59.674;16.838;2023-08-07T01:27:33;34.03;;;24.97;;
10216;SDS011;5152;59.674;16.838;2023-08-07T01:30:06;37.63;;;24.20;;
10216;SDS011;5152;59.674;16.838;2023-08-07T01:32:38;36.23;;;25.70;;
10216;SDS011;5152;59.674;16.838;2023-08-07T01:35:10;37.23;;;26.17;;
10216;SDS011;5152;59.674;16.838;2023-08-07T01:37:40;27.13;;;19.80;;
10216;SDS011;5152;59.674;16.838;2023-08-07T01:40:08;29.90;;;22.40;;
10216;SDS011;5152;59.674;16.838;2023-08-07T01:42:36;28.00;;;21.60;;
10216;SDS011;5152;59.674;16.838;2023-08-07T01:45:04;35.70;;;24.77;;
10216;SDS011;5152;59.674;16.838;2023-08-07T01:47:31;38.33;;;25.90;;
10216;SDS011;5152;59.674;16.838;2023-08-07T01:49:58;37.80;;;25.70;;
10216;SDS011;5152;59.674;16.838;2023-08-07T01:52:25;42.13;;;27.30;;
10216;SDS011;5152;59.674;16.838;2023-08-07T01:54:53;34.30;;;25.73;;
10216;SDS011;5152;59.674;16.838;2023-08-07T01:57:20;28.83;;;22.50;;
10216;SDS011;5152;59.674;16.838;2023-08-07T01:59:47;32.37;;;24.87;;
10216;SDS011;5152;59.674;16.838;2023-08-07T02:02:14;40.10;;;25.40;;
10216;SDS011;5152;59.674;16.838;2023-08-07T02:04:40;35.67;;;24.67;;
10216;SDS011;5152;59.674;16.838;2023-08-07T02:07:08;32.40;;;23.20;;
10216;SDS011;5152;59.674;16.838;2023-08-07T02:09:35;35.50;;;24.10;;
10216;SDS011;5152;59.674;16.838;2023-08-07T02:12:03;31.50;;;23.23;;
10216;SDS011;5152;59.674;16.838;2023-08-07T02:14:31;36.90;;;25.60;;
10216;SDS011;5152;59.674;16.838;2023-08-07T02:16:58;36.67;;;30.00;;
10216;SDS011;5152;59.674;16.838;2023-08-07T02:19:25;15.70;;;13.70;;
10216;SDS011;5152;59.674;16.838;2023-08-07T02:21:51;25.90;;;20.80;;
10216;SDS011;5152;59.674;16.838;2023-08-07T02:24:18;28.67;;;19.67;;
10216;SDS011;5152;59.674;16.838;2023-08-07T02:26:45;13.73;;;11.63;;
10216;SDS011;5152;59.674;16.838;2023-08-07T02:29:14;18.07;;;14.80;;
10216;SDS011;5152;59.674;16.838;2023-08-07T02:31:40;11.87;;;9.87;;
10216;SDS011;5152;59.674;16.838;2023-08-07T02:34:07;19.83;;;14.93;;
10216;SDS011;5152;59.674;16.838;2023-08-07T02:36:34;16.03;;;12.57;;
10216;SDS011;5152;59.674;16.838;2023-08-07T02:39:01;9.73;;;7.87;;
10216;SDS011;5152;59.674;16.838;2023-08-07T02:41:28;16.20;;;13.03;;
10216;SDS011;5152;59.674;16.838;2023-08-07T02:43:54;16.97;;;13.67;;
10216;SDS011;5152;59.674;16.838;2023-08-07T02:46:22;12.93;;;10.87;;
10216;SDS011;5152;59.674;16.838;2023-08-07T02:48:49;14.07;;;12.07;;
10216;SDS011;5152;59.674;16.838;2023-08-07T02:51:16;18.10;;;14.67;;
10216;SDS011;5152;59.674;16.838;2023-08-07T02:53:43;19.00;;;14.23;;
10216;SDS011;5152;59.674;16.838;2023-08-07T02:56:09;17.40;;;13.13;;
10216;SDS011;5152;59.674;16.838;2023-08-07T02:58:36;20.83;;;14.77;;
10216;SDS011;5152;59.674;16.838;2023-08-07T03:01:03;19.70;;;14.43;;
10216;SDS011;5152;59.674;16.838;2023-08-07T03:03:33;16.23;;;14.40;;
10216;SDS011;5152;59.674;16.838;2023-08-07T03:06:00;14.53;;;12.93;;
10216;SDS011;5152;59.674;16.838;2023-08-07T03:08:26;11.03;;;9.13;;
10216;SDS011;5152;59.674;16.838;2023-08-07T03:10:54;16.20;;;11.87;;
10216;SDS011;5152;59.674;16.838;2023-08-07T03:13:21;9.43;;;8.47;;
10216;SDS011;5152;59.674;16.838;2023-08-07T03:15:48;9.00;;;8.10;;
10216;SDS011;5152;59.674;16.838;2023-08-07T03:18:15;13.43;;;9.90;;
10216;SDS011;5152;59.674;16.838;2023-08-07T03:20:44;11.43;;;10.07;;
10216;SDS011;5152;59.674;16.838;2023-08-07T03:23:10;12.70;;;10.50;;
10216;SDS011;5152;59.674;16.838;2023-08-07T03:25:37;8.57;;;6.20;;
10216;SDS011;5152;59.674;16.838;2023-08-07T03:28:04;11.80;;;10.00;;
10216;SDS011;5152;59.674;16.838;2023-08-07T03:30:31;9.83;;;8.20;;
10216;SDS011;5152;59.674;16.838;2023-08-07T03:32:58;11.27;;;9.40;;
10216;SDS011;5152;59.674;16.838;2023-08-07T03:35:25;10.37;;;9.37;;
10216;SDS011;5152;59.674;16.838;2023-08-07T03:37:53;8.10;;;7.23;;
10216;SDS011;5152;59.674;16.838;2023-08-07T03:40:20;16.70;;;10.60;;
10216;SDS011;5152;59.674;16.838;2023-08-07T03:42:47;5.07;;;4.67;;
10216;SDS011;5152;59.674;16.838;2023-08-07T03:45:14;16.97;;;12.83;;
10216;SDS011;5152;59.674;16.838;2023-08-07T03:47:41;9.97;;;8.60;;
10216;SDS011;5152;59.674;16.838;2023-08-07T03:50:07;8.30;;;6.90;;
10216;SDS011;5152;59.674;16.838;2023-08-07T03:52:34;11.13;;;10.03;;
10216;SDS011;5152;59.674;16.838;2023-08-07T03:55:03;13.53;;;12.00;;
10216;SDS011;5152;59.674;16.838;2023-08-07T03:57:30;13.40;;;11.30;;
10216;SDS011;5152;59.674;16.838;2023-08-07T03:59:57;9.60;;;7.83;;
10216;SDS011;5152;59.674;16.838;2023-08-07T04:02:24;11.47;;;9.00;;
10216;SDS011;5152;59.674;16.838;2023-08-07T04:04:52;15.97;;;12.30;;
10216;SDS011;5152;59.674;16.838;2023-08-07T04:07:19;13.30;;;11.87;;
10216;SDS011;5152;59.674;16.838;2023-08-07T04:09:46;9.47;;;8.53;;
10216;SDS011;5152;59.674;16.838;2023-08-07T04:12:14;11.93;;;10.87;;
10216;SDS011;5152;59.674;16.838;2023-08-07T04:14:41;10.63;;;9.47;;
10216;SDS011;5152;59.674;16.838;2023-08-07T04:17:08;16.17;;;14.07;;
10216;SDS011;5152;59.674;16.838;2023-08-07T04:19:36;8.03;;;7.23;;
10216;SDS011;5152;59.674;16.838;2023-08-07T04:22:03;14.03;;;12.63;;
10216;SDS011;5152;59.674;16.838;2023-08-07T04:24:30;15.13;;;10.67;;
10216;SDS011;5152;59.674;16.838;2023-08-07T04:26:57;14.77;;;13.13;;
10216;SDS011;5152;59.674;16.838;2023-08-07T04:29:25;13.10;;;11.13;;
10216;SDS011;5152;59.674;16.838;2023-08-07T04:31:52;12.47;;;10.33;;
10216;SDS011;5152;59.674;16.838;2023-08-07T04:34:19;9.60;;;7.63;;
10216;SDS011;5152;59.674;16.838;2023-08-07T04:36:46;14.43;;;11.50;;
10216;SDS011;5152;59.674;16.838;2023-08-07T04:39:13;15.53;;;13.57;;
10216;SDS011;5152;59.674;16.838;2023-08-07T04:41:40;11.23;;;8.77;;
10216;SDS011;5152;59.674;16.838;2023-08-07T04:44:06;17.50;;;12.67;;
10216;SDS011;5152;59.674;16.838;2023-08-07T04:46:35;17.10;;;13.53;;
10216;SDS011;5152;59.674;16.838;2023-08-07T04:49:01;22.50;;;13.60;;
10216;SDS011;5152;59.674;16.838;2023-08-07T04:51:28;17.13;;;13.10;;
10216;SDS011;5152;59.674;16.838;2023-08-07T04:53:56;16.53;;;13.03;;
10216;SDS011;5152;59.674;16.838;2023-08-07T04:56:23;13.13;;;11.77;;
10216;SDS011;5152;59.674;16.838;2023-08-07T04:58:50;4.97;;;4.47;;
10216;SDS011;5152;59.674;16.838;2023-08-07T05:01:16;16.47;;;9.47;;
10216;SDS011;5152;59.674;16.838;2023-08-07T05:03:45;11.67;;;10.47;;
10216;SDS011;5152;59.674;16.838;2023-08-07T05:06:12;14.63;;;10.97;;
10216;SDS011;5152;59.674;16.838;2023-08-07T05:08:38;11.33;;;10.17;;
10216;SDS011;5152;59.674;16.838;2023-08-07T05:11:06;14.13;;;11.60;;
10216;SDS011;5152;59.674;16.838;2023-08-07T05:13:32;17.13;;;12.27;;
10216;SDS011;5152;59.674;16.838;2023-08-07T05:15:59;15.60;;;13.37;;
10216;SDS011;5152;59.674;16.838;2023-08-07T05:18:26;23.50;;;14.87;;
10216;SDS011;5152;59.674;16.838;2023-08-07T05:20:54;15.23;;;13.73;;
10216;SDS011;5152;59.674;16.838;2023-08-07T05:23:21;13.70;;;11.33;;
10216;SDS011;5152;59.674;16.838;2023-08-07T05:25:48;12.50;;;9.70;;
10216;SDS011;5152;59.674;16.838;2023-08-07T05:28:15;14.77;;;11.97;;
10216;SDS011;5152;59.674;16.838;2023-08-07T05:30:42;14.40;;;12.77;;
10216;SDS011;5152;59.674;16.838;2023-08-07T05:33:09;10.33;;;8.90;;
10216;SDS011;5152;59.674;16.838;2023-08-07T05:35:37;13.07;;;10.00;;
10216;SDS011;5152;59.674;16.838;2023-08-07T05:38:05;11.20;;;10.10;;
10216;SDS011;5152;59.674;16.838;2023-08-07T05:40:33;13.20;;;11.63;;
10216;SDS011;5152;59.674;16.838;2023-08-07T05:43:01;14.07;;;12.40;;
10216;SDS011;5152;59.674;16.838;2023-08-07T05:45:28;16.20;;;11.80;;
10216;SDS011;5152;59.674;16.838;2023-08-07T05:47:55;12.93;;;11.57;;
10216;SDS011;5152;59.674;16.838;2023-08-07T05:50:22;13.67;;;11.47;;
10216;SDS011;5152;59.674;16.838;2023-08-07T05:52:48;18.30;;;14.10;;
10216;SDS011;5152;59.674;16.838;2023-08-07T05:55:17;17.10;;;15.00;;
10216;SDS011;5152;59.674;16.838;2023-08-07T05:57:44;15.27;;;12.17;;
10216;SDS011;5152;59.674;16.838;2023-08-07T06:00:11;15.97;;;12.57;;
10216;SDS011;5152;59.674;16.838;2023-08-07T06:02:42;21.67;;;15.00;;
10216;SDS011;5152;59.674;16.838;2023-08-07T06:05:09;20.03;;;16.33;;
10216;SDS011;5152;59.674;16.838;2023-08-07T06:07:37;12.90;;;11.60;;
10216;SDS011;5152;59.674;16.838;2023-08-07T06:10:05;15.73;;;12.93;;
10216;SDS011;5152;59.674;16.838;2023-08-07T06:12:34;15.23;;;12.90;;
10216;SDS011;5152;59.674;16.838;2023-08-07T06:15:00;10.00;;;9.00;;
10216;SDS011;5152;59.674;16.838;2023-08-07T06:17:27;20.53;;;16.40;;
10216;SDS011;5152;59.674;16.838;2023-08-07T06:19:54;20.60;;;16.80;;
10216;SDS011;5152;59.674;16.838;2023-08-07T06:22:21;19.33;;;15.93;;
10216;SDS011;5152;59.674;16.838;2023-08-07T06:24:48;20.63;;;16.07;;
10216;SDS011;5152;59.674;16.838;2023-08-07T06:27:15;23.00;;;14.47;;
10216;SDS011;5152;59.674;16.838;2023-08-07T06:29:43;13.37;;;12.00;;
10216;SDS011;5152;59.674;16.838;2023-08-07T06:32:10;11.47;;;10.27;;
10216;SDS011;5152;59.674;16.838;2023-08-07T06:34:37;12.47;;;10.80;;
10216;SDS011;5152;59.674;16.838;2023-08-07T06:37:04;17.23;;;12.87;;
10216;SDS011;5152;59.674;16.838;2023-08-07T06:39:31;17.40;;;15.67;;
10216;SDS011;5152;59.674;16.838;2023-08-07T06:41:58;20.13;;;15.37;;
10216;SDS011;5152;59.674;16.838;2023-08-07T06:44:26;17.17;;;14.03;;
10216;SDS011;5152;59.674;16.838;2023-08-07T06:46:54;16.27;;;13.47;;
10216;SDS011;5152;59.674;16.838;2023-08-07T06:49:21;21.07;;;18.10;;
10216;SDS011;5152;59.674;16.838;2023-08-07T06:51:48;23.77;;;18.07;;
10216;SDS011;5152;59.674;16.838;2023-08-07T06:54:15;19.40;;;16.90;;
10216;SDS011;5152;59.674;16.838;2023-08-07T06:56:42;16.63;;;11.30;;
10216;SDS011;5152;59.674;16.838;2023-08-07T06:59:09;20.93;;;17.67;;
10216;SDS011;5152;59.674;16.838;2023-08-07T07:01:36;23.67;;;18.57;;
10216;SDS011;5152;59.674;16.838;2023-08-07T07:04:05;15.87;;;13.57;;
10216;SDS011;5152;59.674;16.838;2023-08-07T07:06:32;19.40;;;17.37;;
10216;SDS011;5152;59.674;16.838;2023-08-07T07:08:59;23.37;;;18.20;;
10216;SDS011;5152;59.674;16.838;2023-08-07T07:11:26;27.67;;;20.47;;
10216;SDS011;5152;59.674;16.838;2023-08-07T07:13:53;18.97;;;17.03;;
10216;SDS011;5152;59.674;16.838;2023-08-07T07:16:20;13.70;;;12.27;;
10216;SDS011;5152;59.674;16.838;2023-08-07T07:18:47;24.27;;;19.93;;
10216;SDS011;5152;59.674;16.838;2023-08-07T07:21:15;22.57;;;20.10;;
10216;SDS011;5152;59.674;16.838;2023-08-07T07:23:42;21.60;;;19.43;;
10216;SDS011;5152;59.674;16.838;2023-08-07T07:26:09;25.23;;;22.43;;
10216;SDS011;5152;59.674;16.838;2023-08-07T07:28:36;26.80;;;21.97;;
10216;SDS011;5152;59.674;16.838;2023-08-07T07:31:03;21.17;;;18.97;;
10216;SDS011;5152;59.674;16.838;2023-08-07T07:33:30;21.30;;;19.10;;
10216;SDS011;5152;59.674;16.838;2023-08-07T07:35:57;24.02;;;20.55;;
10216;SDS011;5152;59.674;16.838;2023-08-07T07:38:25;26.85;;;19.35;;
10216;SDS011;5152;59.674;16.838;2023-08-07T07:40:52;22.05;;;19.75;;
10216;SDS011;5152;59.674;16.838;2023-08-07T07:43:21;16.90;;;15.18;;
10216;SDS011;5152;59.674;16.838;2023-08-07T07:45:48;15.60;;;13.40;;
10216;SDS011;5152;59.674;16.838;2023-08-07T07:48:15;16.13;;;12.80;;
10216;SDS011;5152;59.674;16.838;2023-08-07T07:50:42;20.93;;;16.10;;
10216;SDS011;5152;59.674;16.838;2023-08-07T07:53:09;20.20;;;17.07;;
10216;SDS011;5152;59.674;16.838;2023-08-07T07:55:37;18.17;;;13.00;;
10216;SDS011;5152;59.674;16.838;2023-08-07T07:58:04;17.13;;;14.90;;
10216;SDS011;5152;59.674;16.838;2023-08-07T08:00:31;20.08;;;15.20;;
10216;SDS011;5152;59.674;16.838;2023-08-07T08:02:58;22.25;;;17.70;;
10216;SDS011;5152;59.674;16.838;2023-08-07T08:05:25;19.97;;;16.63;;
10216;SDS011;5152;59.674;16.838;2023-08-07T08:07:52;21.03;;;18.57;;
10216;SDS011;5152;59.674;16.838;2023-08-07T08:10:19;21.33;;;19.03;;
10216;SDS011;5152;59.674;16.838;2023-08-07T08:12:47;17.23;;;15.40;;
10216;SDS011;5152;59.674;16.838;2023-08-07T08:15:14;20.57;;;17.33;;
10216;SDS011;5152;59.674;16.838;2023-08-07T08:17:41;23.53;;;17.83;;
10216;SDS011;5152;59.674;16.838;2023-08-07T08:20:09;19.60;;;17.27;;
10216;SDS011;5152;59.674;16.838;2023-08-07T08:22:36;19.50;;;17.23;;
10216;SDS011;5152;59.674;16.838;2023-08-07T08:25:03;22.77;;;16.40;;
10216;SDS011;5152;59.674;16.838;2023-08-07T08:27:31;21.77;;;17.13;;
10216;SDS011;5152;59.674;16.838;2023-08-07T08:30:00;22.47;;;19.07;;
10216;SDS011;5152;59.674;16.838;2023-08-07T08:32:28;21.85;;;18.83;;
10216;SDS011;5152;59.674;16.838;2023-08-07T08:34:55;20.37;;;18.07;;
10216;SDS011;5152;59.674;16.838;2023-08-07T08:37:22;22.70;;;18.43;;
10216;SDS011;5152;59.674;16.838;2023-08-07T08:39:49;13.60;;;12.40;;
10216;SDS011;5152;59.674;16.838;2023-08-07T08:42:17;28.67;;;20.90;;
10216;SDS011;5152;59.674;16.838;2023-08-07T08:44:52;20.97;;;18.80;;
10216;SDS011;5152;59.674;16.838;2023-08-07T08:47:21;30.07;;;23.20;;
10216;SDS011;5152;59.674;16.838;2023-08-07T08:49:49;24.50;;;19.90;;
10216;SDS011;5152;59.674;16.838;2023-08-07T08:52:17;22.07;;;19.73;;
10216;SDS011;5152;59.674;16.838;2023-08-07T08:54:45;26.40;;;22.47;;
10216;SDS011;5152;59.674;16.838;2023-08-07T08:57:12;23.60;;;21.20;;
10216;SDS011;5152;59.674;16.838;2023-08-07T08:59:39;23.97;;;19.07;;
10216;SDS011;5152;59.674;16.838;2023-08-07T09:02:06;24.73;;;20.97;;
10216;SDS011;5152;59.674;16.838;2023-08-07T09:04:35;24.80;;;22.13;;
10216;SDS011;5152;59.674;16.838;2023-08-07T09:07:02;27.73;;;24.83;;
10216;SDS011;5152;59.674;16.838;2023-08-07T09:09:29;26.40;;;23.50;;
10216;SDS011;5152;59.674;16.838;2023-08-07T09:11:57;27.03;;;22.03;;
10216;SDS011;5152;59.674;16.838;2023-08-07T09:14:24;27.13;;;23.97;;
10216;SDS011;5152;59.674;16.838;2023-08-07T09:16:55;24.83;;;22.10;;
10216;SDS011;5152;59.674;16.838;2023-08-07T09:19:24;29.60;;;24.67;;
10216;SDS011;5152;59.674;16.838;2023-08-07T09:21:53;29.63;;;21.40;;
10216;SDS011;5152;59.674;16.838;2023-08-07T09:24:20;28.97;;;22.20;;
10216;SDS011;5152;59.674;16.838;2023-08-07T09:26:47;24.03;;;21.20;;
10216;SDS011;5152;59.674;16.838;2023-08-07T09:29:14;22.37;;;19.90;;
10216;SDS011;5152;59.674;16.838;2023-08-07T09:31:43;22.57;;;20.27;;
10216;SDS011;5152;59.674;16.838;2023-08-07T09:34:11;25.50;;;20.57;;
10216;SDS011;5152;59.674;16.838;2023-08-07T09:36:40;22.13;;;18.60;;
10216;SDS011;5152;59.674;16.838;2023-08-07T09:39:09;22.95;;;20.52;;
10216;SDS011;5152;59.674;16.838;2023-08-07T09:41:36;21.30;;;19.17;;
10216;SDS011;5152;59.674;16.838;2023-08-07T09:44:06;16.02;;;14.55;;
10216;SDS011;5152;59.674;16.838;2023-08-07T09:46:41;22.20;;;16.40;;
10216;SDS011;5152;59.674;16.838;2023-08-07T09:49:08;18.50;;;16.23;;
10216;SDS011;5152;59.674;16.838;2023-08-07T09:51:41;17.90;;;15.10;;
10216;SDS011;5152;59.674;16.838;2023-08-07T09:54:10;18.33;;;15.50;;
10216;SDS011;5152;59.674;16.838;2023-08-07T09:56:38;12.65;;;11.43;;
10216;SDS011;5152;59.674;16.838;2023-08-07T09:59:07;22.20;;;15.52;;
10216;SDS011;5152;59.674;16.838;2023-08-07T10:01:36;20.10;;;15.07;;
10216;SDS011;5152;59.674;16.838;2023-08-07T10:04:04;17.15;;;12.05;;
10216;SDS011;5152;59.674;16.838;2023-08-07T10:06:31;16.38;;;14.10;;
10216;SDS011;5152;59.674;16.838;2023-08-07T10:08:58;22.30;;;13.35;;
10216;SDS011;5152;59.674;16.838;2023-08-07T10:11:27;21.35;;;14.38;;
10216;SDS011;5152;59.674;16.838;2023-08-07T10:13:55;24.23;;;15.05;;
10216;SDS011;5152;59.674;16.838;2023-08-07T10:16:23;19.80;;;13.95;;
10216;SDS011;5152;59.674;16.838;2023-08-07T10:18:54;21.30;;;14.88;;
10216;SDS011;5152;59.674;16.838;2023-08-07T10:21:23;16.63;;;14.95;;
10216;SDS011;5152;59.674;16.838;2023-08-07T10:23:54;17.65;;;15.05;;
10216;SDS011;5152;59.674;16.838;2023-08-07T10:26:22;23.27;;;15.10;;
10216;SDS011;5152;59.674;16.838;2023-08-07T10:28:51;18.25;;;15.55;;
10216;SDS011;5152;59.674;16.838;2023-08-07T10:31:19;25.00;;;15.07;;
10216;SDS011;5152;59.674;16.838;2023-08-07T10:33:47;19.60;;;16.02;;
10216;SDS011;5152;59.674;16.838;2023-08-07T10:36:15;20.98;;;16.63;;
10216;SDS011;5152;59.674;16.838;2023-08-07T10:38:42;19.08;;;16.75;;
10216;SDS011;5152;59.674;16.838;2023-08-07T10:41:10;21.58;;;16.98;;
10216;SDS011;5152;59.674;16.838;2023-08-07T10:43:38;24.70;;;17.80;;
10216;SDS011;5152;59.674;16.838;2023-08-07T10:46:08;22.42;;;18.05;;
10216;SDS011;5152;59.674;16.838;2023-08-07T10:48:39;16.35;;;14.93;;
10216;SDS011;5152;59.674;16.838;2023-08-07T10:51:07;25.88;;;18.90;;
10216;SDS011;5152;59.674;16.838;2023-08-07T10:53:34;22.33;;;18.85;;
10216;SDS011;5152;59.674;16.838;2023-08-07T10:56:02;25.05;;;17.27;;
10216;SDS011;5152;59.674;16.838;2023-08-07T10:58:30;23.13;;;17.52;;
10216;SDS011;5152;59.674;16.838;2023-08-07T11:01:18;22.95;;;16.65;;
10216;SDS011;5152;59.674;16.838;2023-08-07T11:03:49;20.30;;;18.30;;
10216;SDS011;5152;59.674;16.838;2023-08-07T11:06:17;19.98;;;17.92;;
10216;SDS011;5152;59.674;16.838;2023-08-07T11:08:44;24.35;;;19.27;;
10216;SDS011;5152;59.674;16.838;2023-08-07T11:11:11;22.88;;;17.80;;
10216;SDS011;5152;59.674;16.838;2023-08-07T11:13:38;21.85;;;18.35;;
10216;SDS011;5152;59.674;16.838;2023-08-07T11:16:05;18.42;;;16.58;;
10216;SDS011;5152;59.674;16.838;2023-08-07T11:18:34;24.48;;;19.77;;
10216;SDS011;5152;59.674;16.838;2023-08-07T11:21:03;25.48;;;19.88;;
10216;SDS011;5152;59.674;16.838;2023-08-07T11:23:30;21.90;;;19.63;;
10216;SDS011;5152;59.674;16.838;2023-08-07T11:25:57;24.90;;;19.33;;
10216;SDS011;5152;59.674;16.838;2023-08-07T11:28:24;20.08;;;18.08;;
10216;SDS011;5152;59.674;16.838;2023-08-07T11:30:51;21.40;;;16.83;;
10216;SDS011;5152;59.674;16.838;2023-08-07T11:33:20;12.52;;;10.75;;
10216;SDS011;5152;59.674;16.838;2023-08-07T11:35:49;19.08;;;17.20;;
10216;SDS011;5152;59.674;16.838;2023-08-07T11:38:28;21.98;;;18.35;;
10216;SDS011;5152;59.674;16.838;2023-08-07T11:40:57;19.35;;;17.25;;
10216;SDS011;5152;59.674;16.838;2023-08-07T11:43:26;19.77;;;17.67;;
10216;SDS011;5152;59.674;16.838;2023-08-07T11:45:53;33.05;;;19.48;;
10216;SDS011;5152;59.674;16.838;2023-08-07T11:48:23;19.58;;;17.33;;
10216;SDS011;5152;59.674;16.838;2023-08-07T11:50:51;30.70;;;19.10;;
10216;SDS011;5152;59.674;16.838;2023-08-07T11:53:19;22.27;;;17.38;;
10216;SDS011;5152;59.674;16.838;2023-08-07T11:55:46;21.33;;;16.92;;
10216;SDS011;5152;59.674;16.838;2023-08-07T11:58:14;28.20;;;18.63;;
10216;SDS011;5152;59.674;16.838;2023-08-07T12:00:43;20.45;;;18.13;;
10216;SDS011;5152;59.674;16.838;2023-08-07T12:03:23;21.80;;;17.75;;
10216;SDS011;5152;59.674;16.838;2023-08-07T12:05:53;19.00;;;17.00;;
10216;SDS011;5152;59.674;16.838;2023-08-07T12:08:20;20.58;;;14.15;;
10216;SDS011;5152;59.674;16.838;2023-08-07T12:10:48;15.80;;;14.30;;
10216;SDS011;5152;59.674;16.838;2023-08-07T12:13:19;16.88;;;14.70;;
10216;SDS011;5152;59.674;16.838;2023-08-07T12:15:50;16.20;;;14.50;;
10216;SDS011;5152;59.674;16.838;2023-08-07T12:18:18;21.13;;;15.55;;
10216;SDS011;5152;59.674;16.838;2023-08-07T12:20:45;17.70;;;15.88;;
10216;SDS011;5152;59.674;16.838;2023-08-07T12:23:15;18.15;;;14.73;;
10216;SDS011;5152;59.674;16.838;2023-08-07T12:25:43;18.67;;;16.08;;
10216;SDS011;5152;59.674;16.838;2023-08-07T12:28:10;19.25;;;15.05;;
10216;SDS011;5152;59.674;16.838;2023-08-07T12:30:37;17.50;;;14.90;;
10216;SDS011;5152;59.674;16.838;2023-08-07T12:33:04;19.58;;;14.85;;
10216;SDS011;5152;59.674;16.838;2023-08-07T12:35:32;21.52;;;15.05;;
10216;SDS011;5152;59.674;16.838;2023-08-07T12:38:00;15.13;;;13.23;;
10216;SDS011;5152;59.674;16.838;2023-08-07T12:40:29;16.10;;;14.50;;
10216;SDS011;5152;59.674;16.838;2023-08-07T12:42:56;16.60;;;14.30;;
10216;SDS011;5152;59.674;16.838;2023-08-07T12:45:24;17.17;;;13.68;;
10216;SDS011;5152;59.674;16.838;2023-08-07T12:47:51;17.13;;;15.30;;
10216;SDS011;5152;59.674;16.838;2023-08-07T12:50:18;19.85;;;14.13;;
10216;SDS011;5152;59.674;16.838;2023-08-07T12:52:45;11.80;;;10.68;;
10216;SDS011;5152;59.674;16.838;2023-08-07T12:55:12;23.13;;;13.52;;
10216;SDS011;5152;59.674;16.838;2023-08-07T12:57:41;15.65;;;12.48;;
10216;SDS011;5152;59.674;16.838;2023-08-07T13:00:09;18.88;;;14.23;;
10216;SDS011;5152;59.674;16.838;2023-08-07T13:02:39;14.65;;;12.75;;
10216;SDS011;5152;59.674;16.838;2023-08-07T13:05:07;14.48;;;12.98;;
10216;SDS011;5152;59.674;16.838;2023-08-07T13:07:35;19.25;;;14.77;;
10216;SDS011;5152;59.674;16.838;2023-08-07T13:10:03;15.85;;;14.07;;
10216;SDS011;5152;59.674;16.838;2023-08-07T13:12:33;19.95;;;14.52;;
10216;SDS011;5152;59.674;16.838;2023-08-07T13:15:02;19.67;;;14.73;;
10216;SDS011;5152;59.674;16.838;2023-08-07T13:17:30;16.15;;;14.63;;
10216;SDS011;5152;59.674;16.838;2023-08-07T13:19:57;17.73;;;13.48;;
10216;SDS011;5152;59.674;16.838;2023-08-07T13:22:24;19.13;;;13.90;;
10216;SDS011;5152;59.674;16.838;2023-08-07T13:24:52;15.55;;;14.15;;
10216;SDS011;5152;59.674;16.838;2023-08-07T13:27:18;16.52;;;13.48;;
10216;SDS011;5152;59.674;16.838;2023-08-07T13:29:46;13.18;;;11.80;;
10216;SDS011;5152;59.674;16.838;2023-08-07T13:32:15;17.20;;;12.23;;
10216;SDS011;5152;59.674;16.838;2023-08-07T13:34:43;15.18;;;12.07;;
10216;SDS011;5152;59.674;16.838;2023-08-07T13:37:12;13.80;;;12.00;;
10216;SDS011;5152;59.674;16.838;2023-08-07T13:39:39;14.27;;;12.50;;
10216;SDS011;5152;59.674;16.838;2023-08-07T13:42:06;14.13;;;12.63;;
10216;SDS011;5152;59.674;16.838;2023-08-07T13:44:33;12.00;;;9.88;;
10216;SDS011;5152;59.674;16.838;2023-08-07T13:47:00;16.85;;;10.88;;
10216;SDS011;5152;59.674;16.838;2023-08-07T13:49:29;20.83;;;12.30;;
10216;SDS011;5152;59.674;16.838;2023-08-07T13:51:56;12.02;;;10.90;;
10216;SDS011;5152;59.674;16.838;2023-08-07T13:54:23;15.27;;;12.48;;
10216;SDS011;5152;59.674;16.838;2023-08-07T13:56:49;21.95;;;13.25;;
10216;SDS011;5152;59.674;16.838;2023-08-07T13:59:16;15.00;;;12.23;;
10216;SDS011;5152;59.674;16.838;2023-08-07T14:01:43;15.70;;;11.98;;
10216;SDS011;5152;59.674;16.838;2023-08-07T14:04:10;15.65;;;12.10;;
10216;SDS011;5152;59.674;16.838;2023-08-07T14:06:41;14.88;;;11.82;;
10216;SDS011;5152;59.674;16.838;2023-08-07T14:09:09;15.00;;;11.85;;
10216;SDS011;5152;59.674;16.838;2023-08-07T14:11:36;17.38;;;13.57;;
10216;SDS011;5152;59.674;16.838;2023-08-07T14:14:03;18.63;;;14.60;;
10216;SDS011;5152;59.674;16.838;2023-08-07T14:16:32;19.10;;;13.00;;
10216;SDS011;5152;59.674;16.838;2023-08-07T14:18:59;21.05;;;13.50;;
10216;SDS011;5152;59.674;16.838;2023-08-07T14:21:26;19.10;;;14.40;;
10216;SDS011;5152;59.674;16.838;2023-08-07T14:23:55;20.40;;;13.25;;
10216;SDS011;5152;59.674;16.838;2023-08-07T14:26:21;16.05;;;12.05;;